Time;durP1;ratioP1;P1;durP2;ratioP2;P2;SDS_P1;SDS_P2;PMS_P1;PMS_P2;Temp;Humidity;BMP_temperature;BMP_pressure;BME280_temperature;BME280_humidity;BME280_pressure;Samples;Min_cycle;Max_cycle;Signal;HPM_P1;HPM_P2
2024/01/31 00:00:07;;;;;;;2.38;1.60;;;10.50;99.90;;;;;;5028637;28;20175;-64
2024/01/31 00:02:32;;;;;;;2.63;1.70;;;10.40;99.90;;;;;;5015321;28;20170;-64
2024/01/31 00:05:00;;;;;;;3.45;1.90;;;10.40;99.90;;;;;;5016993;28;20179;-63
2024/01/31 00:07:28;;;;;;;3.13;2.10;;;10.40;99.90;;;;;;5016911;28;20186;-64
2024/01/31 00:09:53;;;;;;;2.17;1.75;;;10.40;99.90;;;;;;5030558;28;20217;-64
2024/01/31 00:12:19;;;;;;;3.08;1.80;;;10.40;99.90;;;;;;5025326;28;20187;-64
2024/01/31 00:14:45;;;;;;;2.15;1.70;;;10.40;99.90;;;;;;5022170;28;20250;-64
2024/01/31 00:17:13;;;;;;;2.40;1.65;;;10.30;99.90;;;;;;5030630;28;20237;-63
2024/01/31 00:19:43;;;;;;;3.22;1.80;;;10.40;99.90;;;;;;5030855;28;20171;-64
2024/01/31 00:22:14;;;;;;;2.33;1.80;;;10.40;99.90;;;;;;5028905;28;20181;-63
2024/01/31 00:24:42;;;;;;;2.50;1.90;;;10.40;99.90;;;;;;5018166;28;20222;-63
2024/01/31 00:27:07;;;;;;;2.50;1.92;;;10.40;99.90;;;;;;5033432;28;20177;-64
2024/01/31 00:29:33;;;;;;;2.20;1.85;;;10.40;99.90;;;;;;5031776;28;20444;-64
2024/01/31 00:31:58;;;;;;;2.97;2.10;;;10.30;99.90;;;;;;5032157;28;20198;-64
2024/01/31 00:34:24;;;;;;;2.15;1.77;;;10.30;99.90;;;;;;5029459;28;20201;-63
2024/01/31 00:36:50;;;;;;;3.28;2.22;;;10.30;99.90;;;;;;5027886;28;20193;-64
2024/01/31 00:39:20;;;;;;;2.80;2.13;;;10.40;99.90;;;;;;5017932;28;20198;-63
2024/01/31 00:41:47;;;;;;;3.08;2.42;;;10.40;99.90;;;;;;5063792;28;20204;-64
2024/01/31 00:44:15;;;;;;;3.60;2.15;;;10.30;99.90;;;;;;5033760;28;20216;-64
2024/01/31 00:46:42;;;;;;;3.00;2.30;;;10.30;99.90;;;;;;5033518;28;20238;-63
2024/01/31 00:49:08;;;;;;;3.60;2.45;;;10.30;99.90;;;;;;5033178;28;20198;-63
2024/01/31 00:51:34;;;;;;;3.30;2.38;;;10.30;99.90;;;;;;5018432;28;20320;-62
2024/01/31 00:54:01;;;;;;;3.58;2.65;;;10.30;99.90;;;;;;5023335;28;20202;-64
2024/01/31 00:56:27;;;;;;;3.50;2.30;;;10.30;99.90;;;;;;5032127;28;20197;-63
2024/01/31 00:58:53;;;;;;;3.55;2.33;;;10.30;99.90;;;;;;5037182;28;20181;-62
2024/01/31 01:01:21;;;;;;;4.03;2.55;;;10.30;99.90;;;;;;5041712;28;20273;-64
2024/01/31 01:03:49;;;;;;;3.35;2.60;;;10.30;99.90;;;;;;5045921;28;20175;-63
2024/01/31 01:06:17;;;;;;;3.88;2.75;;;10.20;99.90;;;;;;5037080;28;20244;-64
2024/01/31 01:08:42;;;;;;;2.85;2.58;;;10.10;99.90;;;;;;5030777;28;20171;-63
2024/01/31 01:11:08;;;;;;;5.07;2.75;;;10.20;99.90;;;;;;5062967;22;20240;-63
2024/01/31 01:13:36;;;;;;;4.32;2.80;;;10.20;99.90;;;;;;5014849;28;20220;-63
2024/01/31 01:16:03;;;;;;;3.55;2.88;;;10.20;99.90;;;;;;5015708;28;20175;-63
2024/01/31 01:18:34;;;;;;;4.28;3.28;;;10.20;99.90;;;;;;5016404;28;20183;-63
2024/01/31 01:20:59;;;;;;;4.05;3.28;;;10.20;99.90;;;;;;5017234;28;20233;-63
2024/01/31 01:23:30;;;;;;;4.28;3.25;;;10.10;99.90;;;;;;5017479;28;20186;-63
2024/01/31 01:25:55;;;;;;;4.00;3.17;;;10.10;99.90;;;;;;5021396;28;20202;-62
2024/01/31 01:28:21;;;;;;;4.60;3.38;;;10.10;99.90;;;;;;5017197;28;20226;-63
2024/01/31 01:30:47;;;;;;;5.32;3.53;;;10.10;99.90;;;;;;5012815;28;20176;-64
2024/01/31 01:33:20;;;;;;;3.88;3.42;;;10.10;99.90;;;;;;5014638;28;20175;-62
2024/01/31 01:35:47;;;;;;;5.20;3.35;;;10.10;99.90;;;;;;5014343;28;20237;-63
2024/01/31 01:38:18;;;;;;;4.50;3.25;;;10.00;99.90;;;;;;5013754;28;20190;-66
2024/01/31 01:40:44;;;;;;;4.70;3.38;;;10.00;99.90;;;;;;5017869;28;20389;-62
2024/01/31 01:43:23;;;;;;;5.43;3.38;;;10.00;99.90;;;;;;5016261;28;20254;-63
2024/01/31 01:45:53;;;;;;;6.10;4.03;;;10.10;99.90;;;;;;5016528;28;20174;-63
2024/01/31 01:48:19;;;;;;;4.57;3.60;;;10.00;99.90;;;;;;5014126;28;20182;-63
2024/01/31 01:50:45;;;;;;;5.18;3.80;;;10.10;99.90;;;;;;5016953;28;20183;-62
2024/01/31 01:53:11;;;;;;;4.13;3.47;;;10.00;99.90;;;;;;5016658;28;20179;-63
2024/01/31 01:55:41;;;;;;;5.68;3.88;;;10.00;99.90;;;;;;5017377;28;20178;-63
2024/01/31 01:58:09;;;;;;;4.65;3.60;;;10.00;99.90;;;;;;5003364;28;20198;-63
2024/01/31 02:00:34;;;;;;;5.38;4.07;;;10.00;99.90;;;;;;5007541;28;20201;-63
2024/01/31 02:03:02;;;;;;;5.03;4.00;;;10.00;99.90;;;;;;5017361;28;20202;-64
2024/01/31 02:05:29;;;;;;;4.40;3.40;;;10.00;99.90;;;;;;5015790;28;20178;-63
2024/01/31 02:07:55;;;;;;;6.13;4.35;;;10.10;99.90;;;;;;5017228;28;20186;-63
2024/01/31 02:10:22;;;;;;;4.57;3.63;;;10.00;99.90;;;;;;5016572;28;20353;-63
2024/01/31 02:12:47;;;;;;;4.55;3.72;;;10.00;99.90;;;;;;5008054;28;20175;-63
2024/01/31 02:15:15;;;;;;;4.65;3.65;;;10.00;99.90;;;;;;4999564;28;20266;-65
2024/01/31 02:17:43;;;;;;;5.25;3.63;;;9.90;99.90;;;;;;5016980;28;20211;-63
2024/01/31 02:20:15;;;;;;;5.63;3.42;;;9.90;99.90;;;;;;5017301;28;20167;-62
2024/01/31 02:22:43;;;;;;;5.70;3.70;;;9.80;99.90;;;;;;5017034;28;20170;-63
2024/01/31 02:25:15;;;;;;;5.25;3.60;;;9.80;99.90;;;;;;5015828;28;20249;-62
2024/01/31 02:27:43;;;;;;;5.88;4.00;;;9.80;99.90;;;;;;5009292;28;20206;-65
2024/01/31 02:30:11;;;;;;;5.40;3.78;;;9.80;99.90;;;;;;5002469;28;20259;-62
2024/01/31 02:32:37;;;;;;;5.82;4.50;;;9.70;99.90;;;;;;5008257;28;20183;-62
2024/01/31 02:35:04;;;;;;;6.70;4.65;;;9.70;99.90;;;;;;4998965;28;20210;-63
2024/01/31 02:37:32;;;;;;;7.60;4.65;;;9.70;99.90;;;;;;5016177;28;20186;-63
2024/01/31 02:40:00;;;;;;;5.55;4.07;;;9.70;99.90;;;;;;5012054;28;20179;-62
2024/01/31 02:42:26;;;;;;;8.25;4.47;;;9.60;99.90;;;;;;5015400;28;20232;-62
2024/01/31 02:44:54;;;;;;;6.30;4.15;;;9.60;99.90;;;;;;5014155;28;20194;-63
2024/01/31 02:47:19;;;;;;;6.75;4.50;;;9.60;99.90;;;;;;5014014;28;20201;-63
2024/01/31 02:49:45;;;;;;;6.65;4.72;;;9.60;99.90;;;;;;5001317;28;20174;-64
2024/01/31 02:52:11;;;;;;;5.00;4.10;;;9.60;99.90;;;;;;5015302;28;20337;-63
2024/01/31 02:54:36;;;;;;;8.20;4.90;;;9.50;99.90;;;;;;5015219;28;20174;-63
2024/01/31 02:57:02;;;;;;;6.10;4.32;;;9.50;99.90;;;;;;5014992;28;20229;-63
2024/01/31 02:59:30;;;;;;;6.93;4.28;;;9.50;99.90;;;;;;5012549;28;20195;-62
2024/01/31 03:01:58;;;;;;;6.93;5.10;;;9.50;99.90;;;;;;5011793;28;20252;-62
2024/01/31 03:04:26;;;;;;;6.72;4.63;;;9.60;99.90;;;;;;5012265;28;20185;-63
2024/01/31 03:06:54;;;;;;;7.30;4.65;;;9.50;99.90;;;;;;5013026;28;20230;-63
2024/01/31 03:09:21;;;;;;;6.07;4.43;;;9.50;99.90;;;;;;5016829;28;20195;-63
2024/01/31 03:11:47;;;;;;;7.03;5.30;;;9.50;99.90;;;;;;5015406;28;20190;-62
2024/01/31 03:14:12;;;;;;;7.20;4.80;;;9.50;99.90;;;;;;5014139;28;20214;-63
2024/01/31 03:16:39;;;;;;;6.20;4.43;;;9.40;99.90;;;;;;5014070;28;20198;-63
2024/01/31 03:19:08;;;;;;;6.82;4.80;;;9.40;99.90;;;;;;5014116;28;20190;-63
2024/01/31 03:21:34;;;;;;;6.25;4.90;;;9.40;99.90;;;;;;5015203;28;20190;-63
2024/01/31 03:24:00;;;;;;;6.77;4.60;;;9.40;99.90;;;;;;5015605;28;20175;-64
2024/01/31 03:26:27;;;;;;;6.47;4.65;;;9.50;99.90;;;;;;5013518;28;20185;-62
2024/01/31 03:28:54;;;;;;;5.68;4.65;;;9.50;99.90;;;;;;5014959;28;20182;-66
2024/01/31 03:31:20;;;;;;;7.40;4.57;;;9.50;99.90;;;;;;5023459;28;20186;-63
2024/01/31 03:33:45;;;;;;;6.53;4.70;;;9.50;99.90;;;;;;5011262;28;20190;-63
2024/01/31 03:36:14;;;;;;;6.80;5.25;;;9.50;99.90;;;;;;5013954;28;20190;-63
2024/01/31 03:38:42;;;;;;;7.43;5.10;;;9.50;99.90;;;;;;5014392;28;20171;-64
2024/01/31 03:41:08;;;;;;;7.00;4.88;;;9.50;99.90;;;;;;5014506;28;20229;-63
2024/01/31 03:43:38;;;;;;;7.38;4.95;;;9.50;99.90;;;;;;5014597;28;20484;-64
2024/01/31 03:46:07;;;;;;;5.38;4.38;;;9.50;99.90;;;;;;5014815;28;20189;-64
2024/01/31 03:48:37;;;;;;;6.60;5.10;;;9.50;99.90;;;;;;5014936;28;20198;-64
2024/01/31 03:51:03;;;;;;;6.27;4.77;;;9.50;99.90;;;;;;5011860;28;20167;-64
2024/01/31 03:53:29;;;;;;;7.22;5.10;;;9.50;99.90;;;;;;5011520;28;20190;-63
2024/01/31 03:55:57;;;;;;;7.60;5.00;;;9.50;99.90;;;;;;5005545;28;20199;-64
2024/01/31 03:58:25;;;;;;;6.73;4.80;;;9.50;99.90;;;;;;5013457;28;20182;-63
2024/01/31 04:00:50;;;;;;;6.33;5.20;;;9.50;99.90;;;;;;5014800;28;20174;-64
2024/01/31 04:03:20;;;;;;;7.60;5.70;;;9.50;99.90;;;;;;5014371;28;20245;-64
2024/01/31 04:05:49;;;;;;;6.77;5.20;;;9.50;99.90;;;;;;5013275;28;20257;-64
2024/01/31 04:08:14;;;;;;;7.20;5.47;;;9.50;99.90;;;;;;5014592;28;20190;-64
2024/01/31 04:10:40;;;;;;;8.23;5.70;;;9.50;99.90;;;;;;5014070;28;20198;-64
2024/01/31 04:13:08;;;;;;;7.72;5.55;;;9.40;99.90;;;;;;5001973;28;20237;-63
2024/01/31 04:15:39;;;;;;;9.40;6.23;;;9.40;99.90;;;;;;5013424;28;20215;-64
2024/01/31 04:18:04;;;;;;;7.53;5.65;;;9.40;99.90;;;;;;5009585;28;20199;-64
2024/01/31 04:20:30;;;;;;;7.93;5.50;;;9.40;99.90;;;;;;5013654;28;20189;-64
2024/01/31 04:22:58;;;;;;;8.03;5.63;;;9.40;99.90;;;;;;5024623;28;20190;-64
2024/01/31 04:25:24;;;;;;;8.90;5.50;;;9.30;99.90;;;;;;5011126;28;20193;-63
2024/01/31 04:27:51;;;;;;;8.10;5.77;;;9.30;99.90;;;;;;5013210;28;22017;-64
2024/01/31 04:30:18;;;;;;;8.77;6.00;;;9.30;99.90;;;;;;5003622;28;20203;-64
2024/01/31 04:32:46;;;;;;;7.57;5.75;;;9.30;99.90;;;;;;5011451;28;20239;-64
2024/01/31 04:35:12;;;;;;;8.18;6.10;;;9.30;99.90;;;;;;5034338;28;20264;-63
2024/01/31 04:37:38;;;;;;;9.45;6.43;;;9.30;99.90;;;;;;5014188;28;20247;-64
2024/01/31 04:40:04;;;;;;;7.23;5.53;;;9.40;99.90;;;;;;5013951;28;20183;-64
2024/01/31 04:42:31;;;;;;;9.70;6.30;;;9.30;99.90;;;;;;5014370;28;20182;-64
2024/01/31 04:44:57;;;;;;;7.70;5.93;;;9.30;99.90;;;;;;5004691;28;20203;-64
2024/01/31 04:47:25;;;;;;;8.60;5.90;;;9.30;99.90;;;;;;5014038;28;20266;-64
2024/01/31 04:49:58;;;;;;;8.02;6.25;;;9.30;99.90;;;;;;5014159;28;20295;-64
2024/01/31 04:52:24;;;;;;;10.10;6.95;;;9.40;99.90;;;;;;5009056;28;20225;-65
2024/01/31 04:54:53;;;;;;;8.98;6.57;;;9.30;99.90;;;;;;5007263;28;20187;-65
2024/01/31 04:57:18;;;;;;;8.70;6.45;;;9.30;99.90;;;;;;5014193;28;20199;-64
2024/01/31 04:59:44;;;;;;;9.13;7.03;;;9.30;99.90;;;;;;5012400;28;20241;-64
2024/01/31 05:02:12;;;;;;;9.30;6.57;;;9.30;99.90;;;;;;5010610;28;20202;-65
2024/01/31 05:04:41;;;;;;;9.60;7.05;;;9.30;99.90;;;;;;5011572;28;20207;-65
2024/01/31 05:07:09;;;;;;;9.73;6.75;;;9.30;99.90;;;;;;5001187;28;20206;-64
2024/01/31 05:09:35;;;;;;;8.85;6.63;;;9.30;99.90;;;;;;5014297;28;20206;-67
2024/01/31 05:12:00;;;;;;;8.75;6.72;;;9.30;99.90;;;;;;5016316;28;20197;-67
2024/01/31 05:14:26;;;;;;;9.63;7.20;;;9.30;99.90;;;;;;5014567;28;20183;-68
2024/01/31 05:16:56;;;;;;;10.23;7.07;;;9.30;99.90;;;;;;5006376;28;20285;-68
2024/01/31 05:19:22;;;;;;;9.23;6.97;;;9.30;99.90;;;;;;5011592;28;20194;-67
2024/01/31 05:21:54;;;;;;;9.03;6.63;;;9.40;99.90;;;;;;5013985;28;20253;-67
2024/01/31 05:24:21;;;;;;;9.70;7.03;;;9.40;99.90;;;;;;5003041;28;20167;-64
2024/01/31 05:26:50;;;;;;;7.88;6.22;;;9.40;99.90;;;;;;5014182;28;20175;-65
2024/01/31 05:29:18;;;;;;;8.90;6.85;;;9.40;99.90;;;;;;5015193;28;20175;-65
2024/01/31 05:31:43;;;;;;;10.05;6.93;;;9.30;99.90;;;;;;5030413;28;20174;-65
2024/01/31 05:34:10;;;;;;;8.57;6.70;;;9.30;99.90;;;;;;5002730;28;20206;-65
2024/01/31 05:36:36;;;;;;;7.65;6.22;;;9.30;99.90;;;;;;5009989;28;20205;-64
2024/01/31 05:39:03;;;;;;;10.05;7.13;;;9.30;99.90;;;;;;4996230;28;20287;-65
2024/01/31 05:41:29;;;;;;;9.03;6.97;;;9.30;99.90;;;;;;4995301;28;20203;-64
2024/01/31 05:43:56;;;;;;;8.33;6.27;;;9.40;99.90;;;;;;5013325;28;20175;-64
2024/01/31 05:46:22;;;;;;;10.70;7.20;;;9.20;99.90;;;;;;5008329;28;20241;-65
2024/01/31 05:48:48;;;;;;;9.90;6.80;;;9.30;99.90;;;;;;4997688;28;20179;-64
2024/01/31 05:51:18;;;;;;;9.00;6.72;;;9.20;99.90;;;;;;4997814;28;20430;-64
2024/01/31 05:53:46;;;;;;;10.20;6.77;;;9.20;99.90;;;;;;4997745;28;20209;-65
2024/01/31 05:56:12;;;;;;;9.63;6.70;;;9.30;99.90;;;;;;4997794;28;20183;-64
2024/01/31 05:58:37;;;;;;;9.97;7.63;;;9.10;99.90;;;;;;4997593;28;20175;-64
2024/01/31 06:01:07;;;;;;;10.07;7.50;;;9.20;99.90;;;;;;4997827;28;20164;-65
2024/01/31 06:03:33;;;;;;;11.10;8.23;;;9.20;99.90;;;;;;5008876;28;20179;-64
2024/01/31 06:06:01;;;;;;;11.67;8.33;;;9.20;99.90;;;;;;5016742;28;20252;-64
2024/01/31 06:08:29;;;;;;;10.88;7.57;;;9.20;99.90;;;;;;5017146;28;20193;-65
2024/01/31 06:11:02;;;;;;;11.27;8.53;;;9.10;99.90;;;;;;5017122;28;20293;-64
2024/01/31 06:13:31;;;;;;;12.02;8.35;;;9.20;99.90;;;;;;5015587;28;20253;-64
2024/01/31 06:15:58;;;;;;;13.83;9.10;;;9.10;99.90;;;;;;4997883;28;20184;-65
2024/01/31 06:18:24;;;;;;;13.65;9.38;;;9.00;99.90;;;;;;4997507;28;20179;-65
2024/01/31 06:20:52;;;;;;;11.00;8.23;;;9.10;99.90;;;;;;4997341;28;20207;-65
2024/01/31 06:23:20;;;;;;;12.85;8.68;;;9.10;99.90;;;;;;5007250;28;20179;-65
2024/01/31 06:25:46;;;;;;;12.50;9.07;;;9.00;99.90;;;;;;5012807;28;20273;-65
2024/01/31 06:28:11;;;;;;;12.57;9.23;;;9.00;99.90;;;;;;5016762;28;20214;-65
2024/01/31 06:30:44;;;;;;;11.63;8.60;;;9.00;99.90;;;;;;5006513;28;20179;-65
2024/01/31 06:33:11;;;;;;;11.63;8.57;;;9.00;99.90;;;;;;5011740;28;20194;-66
2024/01/31 06:35:43;;;;;;;12.73;9.20;;;9.00;99.90;;;;;;5012827;28;20271;-65
2024/01/31 06:38:08;;;;;;;12.20;8.53;;;9.00;99.90;;;;;;5008148;28;20285;-65
2024/01/31 06:40:35;;;;;;;13.05;8.80;;;9.00;99.90;;;;;;5016262;28;20237;-66
2024/01/31 06:43:01;;;;;;;12.80;8.80;;;9.00;99.90;;;;;;5000938;28;20183;-66
2024/01/31 06:45:29;;;;;;;11.90;8.53;;;9.00;99.90;;;;;;5016597;28;20166;-65
2024/01/31 06:47:55;;;;;;;11.68;8.18;;;9.00;99.90;;;;;;5016167;28;20195;-65
2024/01/31 06:50:21;;;;;;;11.87;8.40;;;9.00;99.90;;;;;;5016284;28;20179;-65
2024/01/31 06:52:47;;;;;;;11.95;8.55;;;9.00;99.90;;;;;;5016017;28;20257;-65
2024/01/31 06:55:16;;;;;;;12.80;8.17;;;9.00;99.90;;;;;;5015718;28;20276;-65
2024/01/31 06:57:42;;;;;;;11.63;8.33;;;9.00;99.90;;;;;;5016346;28;20209;-65
2024/01/31 07:00:12;;;;;;;13.40;8.97;;;9.00;99.90;;;;;;5016755;28;20210;-68
2024/01/31 07:02:41;;;;;;;12.27;8.23;;;8.90;99.90;;;;;;5016161;28;20545;-66
2024/01/31 07:05:06;;;;;;;11.90;8.38;;;9.00;99.90;;;;;;5016000;28;20214;-68
2024/01/31 07:07:33;;;;;;;13.43;9.88;;;9.00;99.90;;;;;;5015715;28;20202;-67
2024/01/31 07:09:59;;;;;;;11.90;9.13;;;9.00;99.90;;;;;;5014392;28;20545;-66
2024/01/31 07:12:24;;;;;;;11.87;9.17;;;8.90;99.90;;;;;;4997018;28;20191;-67
2024/01/31 07:14:52;;;;;;;13.63;8.87;;;9.00;99.90;;;;;;5010172;28;20202;-68
2024/01/31 07:17:18;;;;;;;12.13;9.10;;;8.90;99.90;;;;;;4995753;28;20203;-68
2024/01/31 07:19:46;;;;;;;13.10;9.37;;;8.90;99.90;;;;;;4996283;28;20186;-67
2024/01/31 07:22:12;;;;;;;13.73;9.43;;;8.90;99.90;;;;;;5002656;28;20221;-68
2024/01/31 07:24:38;;;;;;;13.17;9.10;;;8.90;99.90;;;;;;5015628;28;20174;-67
2024/01/31 07:27:06;;;;;;;12.97;9.03;;;8.90;99.90;;;;;;5015934;28;20189;-67
2024/01/31 07:29:36;;;;;;;13.97;9.60;;;8.90;99.90;;;;;;5015203;28;20194;-67
2024/01/31 07:32:04;;;;;;;13.70;9.63;;;8.90;99.90;;;;;;5013913;28;20191;-68
2024/01/31 07:34:35;;;;;;;12.50;9.30;;;8.90;99.90;;;;;;5015114;28;20183;-68
2024/01/31 07:37:00;;;;;;;12.88;9.32;;;8.90;99.90;;;;;;5015382;28;20206;-66
2024/01/31 07:39:28;;;;;;;12.17;8.70;;;9.00;99.90;;;;;;5013875;28;20245;-68
2024/01/31 07:41:59;;;;;;;11.27;8.63;;;8.90;99.90;;;;;;5012898;28;20214;-67
2024/01/31 07:44:24;;;;;;;12.47;9.27;;;9.00;99.90;;;;;;5015377;28;20210;-67
2024/01/31 07:46:52;;;;;;;13.13;8.95;;;9.00;99.90;;;;;;5015320;28;20229;-67
2024/01/31 07:49:20;;;;;;;12.65;9.25;;;9.00;99.90;;;;;;5010686;28;20212;-67
2024/01/31 07:51:46;;;;;;;14.18;9.70;;;9.00;99.90;;;;;;5010798;28;20218;-67
2024/01/31 07:54:14;;;;;;;13.30;9.20;;;9.00;99.90;;;;;;5013037;28;20264;-67
2024/01/31 07:56:39;;;;;;;11.95;8.70;;;9.00;99.90;;;;;;5010863;28;20195;-68
2024/01/31 07:59:06;;;;;;;11.07;8.17;;;9.00;99.90;;;;;;5011811;28;20172;-67
2024/01/31 08:01:34;;;;;;;11.10;8.13;;;9.00;99.90;;;;;;5011897;28;20182;-69
2024/01/31 08:04:01;;;;;;;11.75;8.00;;;9.00;99.90;;;;;;5011834;28;20177;-69
2024/01/31 08:06:27;;;;;;;10.88;8.15;;;9.10;99.90;;;;;;5014803;28;20284;-68
2024/01/31 08:08:55;;;;;;;10.45;7.55;;;9.10;99.90;;;;;;5014280;28;20202;-69
2024/01/31 08:11:20;;;;;;;11.10;7.68;;;9.10;99.90;;;;;;5014791;28;20237;-68
2024/01/31 08:13:46;;;;;;;10.43;7.40;;;9.10;99.90;;;;;;5014704;28;20179;-68
2024/01/31 08:16:15;;;;;;;10.48;7.32;;;9.10;99.90;;;;;;5014771;28;20209;-68
2024/01/31 08:18:43;;;;;;;11.15;7.45;;;9.10;99.90;;;;;;5014775;28;20228;-68
2024/01/31 08:21:10;;;;;;;10.13;7.83;;;9.10;99.90;;;;;;5015368;28;20163;-68
2024/01/31 08:23:38;;;;;;;10.27;7.47;;;9.20;99.90;;;;;;5014593;28;20203;-69
2024/01/31 08:26:05;;;;;;;9.20;6.97;;;9.10;99.90;;;;;;5014767;28;20178;-69
2024/01/31 08:28:31;;;;;;;10.82;7.40;;;9.20;99.90;;;;;;5014495;28;20174;-68
2024/01/31 08:30:56;;;;;;;9.80;7.50;;;9.20;99.90;;;;;;5014612;28;20201;-69
2024/01/31 08:33:24;;;;;;;10.02;7.07;;;9.20;99.90;;;;;;5014242;28;20193;-68
2024/01/31 08:35:55;;;;;;;9.48;7.03;;;9.20;99.90;;;;;;5014075;28;20452;-68
2024/01/31 08:38:20;;;;;;;9.35;6.70;;;9.30;99.90;;;;;;5014251;28;20205;-67
2024/01/31 08:40:46;;;;;;;8.48;6.47;;;9.30;99.90;;;;;;5005476;28;20183;-69
2024/01/31 08:43:11;;;;;;;10.68;6.45;;;9.30;99.90;;;;;;4994861;28;20195;-69
2024/01/31 08:45:39;;;;;;;8.82;6.10;;;9.30;99.90;;;;;;4994487;28;20220;-69
2024/01/31 08:48:05;;;;;;;8.18;6.32;;;9.40;99.90;;;;;;4994869;28;20218;-68
2024/01/31 08:50:31;;;;;;;8.27;5.93;;;9.40;99.90;;;;;;4994515;28;20203;-68
2024/01/31 08:52:59;;;;;;;7.53;5.40;;;9.40;99.90;;;;;;4994262;28;20183;-69
2024/01/31 08:55:26;;;;;;;7.28;5.35;;;9.50;99.90;;;;;;4997311;28;20194;-69
2024/01/31 08:57:54;;;;;;;6.60;4.90;;;9.50;99.90;;;;;;5013377;28;20226;-69
2024/01/31 09:00:20;;;;;;;8.90;5.25;;;9.60;99.90;;;;;;5013497;28;20209;-69
2024/01/31 09:02:49;;;;;;;10.68;6.22;;;9.50;99.90;;;;;;5014105;28;20179;-69
2024/01/31 09:05:14;;;;;;;7.50;5.57;;;9.50;99.90;;;;;;5014369;28;20194;-68
2024/01/31 09:07:40;;;;;;;10.27;5.80;;;9.50;99.90;;;;;;5014252;28;20175;-68
2024/01/31 09:10:11;;;;;;;8.25;5.65;;;9.50;99.90;;;;;;5014002;28;20266;-69
2024/01/31 09:12:39;;;;;;;7.20;5.50;;;9.60;99.90;;;;;;5014226;28;20233;-68
2024/01/31 09:15:05;;;;;;;7.68;5.43;;;9.60;99.90;;;;;;5013095;28;20190;-69
2024/01/31 09:17:33;;;;;;;7.25;5.22;;;9.60;99.90;;;;;;5013778;28;20313;-68
2024/01/31 09:19:58;;;;;;;8.95;5.57;;;9.60;99.90;;;;;;5017209;28;20266;-68
2024/01/31 09:22:24;;;;;;;8.43;6.07;;;9.60;99.90;;;;;;5017825;28;20170;-69
2024/01/31 09:24:52;;;;;;;7.82;5.78;;;9.60;99.90;;;;;;5014294;28;20203;-69
2024/01/31 09:27:19;;;;;;;5.70;4.80;;;9.70;99.90;;;;;;5017072;28;20185;-69
2024/01/31 09:29:47;;;;;;;7.85;5.95;;;9.70;99.90;;;;;;5017954;28;20171;-69
2024/01/31 09:32:14;;;;;;;7.47;5.75;;;9.70;99.90;;;;;;5005728;28;20242;-69
2024/01/31 09:34:41;;;;;;;8.07;6.22;;;9.80;99.90;;;;;;4998211;28;20190;-68
2024/01/31 09:37:09;;;;;;;7.88;6.03;;;9.70;99.90;;;;;;5004230;28;20262;-69
2024/01/31 09:39:37;;;;;;;9.50;6.15;;;9.70;99.90;;;;;;5017356;28;20206;-69
2024/01/31 09:42:05;;;;;;;7.53;5.70;;;9.70;99.90;;;;;;5017634;28;20183;-69
2024/01/31 09:44:32;;;;;;;8.23;5.80;;;9.70;99.90;;;;;;5017433;28;20201;-69
2024/01/31 09:47:01;;;;;;;7.53;5.93;;;9.60;99.90;;;;;;5017927;28;20265;-69
2024/01/31 09:49:29;;;;;;;6.53;5.03;;;9.60;99.90;;;;;;5017359;28;20175;-69
2024/01/31 09:52:01;;;;;;;9.00;5.78;;;9.60;99.90;;;;;;5017334;28;20206;-67
2024/01/31 09:54:29;;;;;;;6.43;5.25;;;9.70;99.90;;;;;;4997984;28;20312;-69
2024/01/31 09:56:55;;;;;;;7.88;5.13;;;9.70;99.90;;;;;;4997801;28;20443;-68
2024/01/31 09:59:21;;;;;;;6.45;4.95;;;9.60;99.90;;;;;;5016954;28;20209;-69
2024/01/31 10:01:53;;;;;;;7.47;5.20;;;9.70;99.90;;;;;;5016953;28;20296;-68
2024/01/31 10:04:19;;;;;;;7.00;4.57;;;9.70;99.90;;;;;;5015126;28;20183;-68
2024/01/31 10:06:47;;;;;;;6.72;4.65;;;9.70;99.90;;;;;;5017165;28;20264;-69
2024/01/31 10:09:13;;;;;;;6.13;4.40;;;9.70;99.90;;;;;;5016851;28;20251;-69
2024/01/31 10:11:47;;;;;;;5.75;4.28;;;9.70;99.90;;;;;;5016777;28;20253;-68
2024/01/31 10:14:13;;;;;;;5.68;4.32;;;9.70;99.90;;;;;;5016379;28;20181;-69
2024/01/31 10:16:42;;;;;;;6.25;4.20;;;9.70;99.90;;;;;;5014692;28;20293;-69
2024/01/31 10:19:08;;;;;;;6.18;4.63;;;9.70;99.90;;;;;;5016737;28;20230;-67
2024/01/31 10:21:35;;;;;;;5.25;3.92;;;9.70;99.90;;;;;;5016936;28;20214;-70
2024/01/31 10:24:04;;;;;;;4.18;3.58;;;9.70;99.90;;;;;;5016759;28;20265;-67
2024/01/31 10:26:36;;;;;;;5.00;3.80;;;9.70;99.90;;;;;;5016424;28;20211;-67
2024/01/31 10:29:04;;;;;;;4.40;3.65;;;9.70;99.90;;;;;;5016722;28;20171;-67
2024/01/31 10:31:30;;;;;;;5.78;3.30;;;9.70;99.90;;;;;;5016004;28;20175;-68
2024/01/31 10:34:02;;;;;;;5.13;3.58;;;9.70;99.90;;;;;;5016360;28;20175;-67
2024/01/31 10:36:31;;;;;;;4.32;3.13;;;9.70;99.90;;;;;;5016496;28;20191;-68
2024/01/31 10:39:02;;;;;;;4.18;3.20;;;9.70;99.90;;;;;;5015756;28;20273;-68
2024/01/31 10:41:31;;;;;;;4.22;3.10;;;9.90;99.90;;;;;;5016391;28;20245;-65
2024/01/31 10:44:03;;;;;;;3.88;2.92;;;9.80;99.90;;;;;;5007088;28;20179;-67
2024/01/31 10:46:31;;;;;;;3.83;3.35;;;9.80;99.90;;;;;;4996618;28;20209;-68
2024/01/31 10:48:56;;;;;;;4.72;3.70;;;9.80;99.90;;;;;;4996531;28;20179;-68
2024/01/31 10:51:23;;;;;;;3.60;2.92;;;9.80;99.90;;;;;;4996621;28;20186;-67
2024/01/31 10:53:51;;;;;;;4.18;3.42;;;9.80;99.90;;;;;;4996639;28;20195;-68
2024/01/31 10:56:19;;;;;;;4.88;3.50;;;9.80;99.90;;;;;;5006029;28;20179;-67
2024/01/31 10:58:48;;;;;;;4.03;3.30;;;9.80;99.90;;;;;;5016378;28;20194;-67
2024/01/31 11:01:14;;;;;;;3.47;2.85;;;9.80;99.90;;;;;;5016128;28;20178;-67
2024/01/31 11:03:49;;;;;;;3.63;2.92;;;9.80;99.90;;;;;;5015881;28;20170;-68
2024/01/31 11:06:15;;;;;;;2.97;2.53;;;9.80;99.90;;;;;;5015470;28;20178;-67
2024/01/31 11:08:44;;;;;;;3.22;2.83;;;9.80;99.90;;;;;;5015357;28;20167;-68
2024/01/31 11:11:12;;;;;;;4.18;2.35;;;9.90;99.90;;;;;;5015811;28;20190;-68
2024/01/31 11:13:43;;;;;;;2.35;2.10;;;9.80;99.90;;;;;;5015471;28;20198;-68
2024/01/31 11:16:08;;;;;;;2.20;2.00;;;9.80;99.90;;;;;;5015961;28;20258;-68
2024/01/31 11:18:36;;;;;;;2.63;2.28;;;9.90;99.90;;;;;;5010023;28;20274;-68
2024/01/31 11:21:06;;;;;;;3.22;2.20;;;9.90;99.90;;;;;;5015192;28;20199;-67
2024/01/31 11:23:33;;;;;;;2.50;1.98;;;9.90;99.90;;;;;;4998981;28;20171;-68
2024/01/31 11:26:02;;;;;;;2.95;1.90;;;10.00;99.90;;;;;;4995919;28;20194;-68
2024/01/31 11:28:31;;;;;;;2.88;1.90;;;10.00;99.90;;;;;;4995953;28;20226;-68
2024/01/31 11:30:56;;;;;;;3.53;2.03;;;10.00;99.90;;;;;;5012489;28;20179;-67
2024/01/31 11:33:22;;;;;;;2.60;1.83;;;10.00;99.90;;;;;;5015329;28;20224;-68
2024/01/31 11:35:48;;;;;;;2.30;1.85;;;10.10;99.90;;;;;;5015562;28;20301;-68
2024/01/31 11:38:14;;;;;;;2.10;1.80;;;10.10;99.90;;;;;;5015373;28;20203;-68
2024/01/31 11:40:42;;;;;;;2.35;1.98;;;10.20;99.90;;;;;;5015436;28;20268;-68
2024/01/31 11:43:11;;;;;;;2.10;1.70;;;10.20;99.90;;;;;;5014391;28;20170;-67
2024/01/31 11:45:38;;;;;;;1.92;1.60;;;10.30;99.90;;;;;;5015153;28;20174;-66
2024/01/31 11:48:04;;;;;;;2.38;1.50;;;10.20;99.90;;;;;;5011927;28;20215;-68
2024/01/31 11:50:32;;;;;;;1.90;1.60;;;10.20;99.90;;;;;;5009594;28;20199;-68
2024/01/31 11:53:00;;;;;;;2.17;1.80;;;10.20;99.90;;;;;;5014951;28;20170;-66
2024/01/31 11:55:29;;;;;;;2.28;1.90;;;10.30;99.90;;;;;;5005728;28;20207;-67
2024/01/31 11:57:55;;;;;;;1.95;1.50;;;10.20;99.90;;;;;;4995142;28;20209;-67
2024/01/31 12:00:21;;;;;;;1.55;1.35;;;10.20;99.90;;;;;;4995370;28;20195;-68
2024/01/31 12:02:47;;;;;;;1.90;1.70;;;10.20;99.90;;;;;;4995203;28;20303;-67
2024/01/31 12:05:15;;;;;;;2.33;1.42;;;10.20;99.90;;;;;;5006713;28;20206;-68
2024/01/31 12:07:43;;;;;;;1.60;1.50;;;10.20;99.90;;;;;;5014546;28;20187;-67
2024/01/31 12:10:11;;;;;;;2.00;1.60;;;10.20;99.90;;;;;;5014072;28;20171;-68
2024/01/31 12:12:41;;;;;;;1.33;1.20;;;10.20;99.90;;;;;;5014900;28;20166;-68
2024/01/31 12:15:10;;;;;;;1.83;1.50;;;10.20;99.90;;;;;;5014299;28;20207;-67
2024/01/31 12:17:36;;;;;;;2.25;1.38;;;10.20;99.90;;;;;;5014625;28;20256;-67
2024/01/31 12:20:11;;;;;;;2.35;1.50;;;10.10;99.90;;;;;;5000379;28;20191;-68
2024/01/31 12:22:38;;;;;;;1.67;1.40;;;10.20;99.90;;;;;;5010084;28;20210;-68
2024/01/31 12:25:05;;;;;;;1.83;1.40;;;10.20;99.90;;;;;;5013460;28;20197;-67
2024/01/31 12:27:31;;;;;;;1.95;1.40;;;10.20;99.90;;;;;;5014100;28;20205;-67
2024/01/31 12:29:57;;;;;;;2.00;1.80;;;10.20;99.90;;;;;;5014131;28;20217;-68
2024/01/31 12:32:26;;;;;;;4.03;3.05;;;10.20;99.90;;;;;;5014582;28;20186;-68
2024/01/31 12:34:52;;;;;;;2.40;1.88;;;10.20;99.90;;;;;;5014265;28;20236;-66
2024/01/31 12:37:23;;;;;;;2.10;1.70;;;10.30;99.90;;;;;;5013672;28;20194;-67
2024/01/31 12:39:49;;;;;;;1.80;1.60;;;10.20;99.90;;;;;;5010833;28;20171;-67
2024/01/31 12:42:14;;;;;;;2.33;1.90;;;10.30;99.90;;;;;;5012116;28;20285;-67
2024/01/31 12:44:40;;;;;;;2.35;1.90;;;10.20;99.90;;;;;;5014021;28;20208;-67
2024/01/31 12:47:06;;;;;;;2.65;1.80;;;10.20;99.90;;;;;;5014394;28;20225;-68
2024/01/31 12:49:33;;;;;;;3.20;1.83;;;10.30;99.90;;;;;;5014175;28;20285;-67
2024/01/31 12:52:00;;;;;;;2.70;1.85;;;10.20;99.90;;;;;;5014296;28;20171;-68